createdAt,value
2023-03-26T04:02:14.982Z,7.63
2023-03-26T04:03:14.754Z,7.61
2023-03-26T04:04:14.648Z,7.60
2023-03-26T04:05:14.670Z,7.58
2023-03-26T04:06:14.619Z,7.60
2023-03-26T04:07:14.596Z,7.60
2023-03-26T04:08:14.571Z,7.55
2023-03-26T04:09:14.548Z,7.58
2023-03-26T04:10:14.555Z,7.58
2023-03-26T04:11:14.541Z,7.61
2023-03-26T04:12:14.539Z,7.63
2023-03-26T04:13:14.554Z,7.63
2023-03-26T04:14:14.507Z,7.67
2023-03-26T04:15:14.505Z,7.69
2023-03-26T04:16:14.514Z,7.67
2023-03-26T04:17:14.479Z,7.68
2023-03-26T04:18:14.490Z,7.71
2023-03-26T04:19:14.453Z,7.69
2023-03-26T04:20:14.448Z,7.68
2023-03-26T04:21:14.423Z,7.68
2023-03-26T04:22:14.419Z,7.69
2023-03-26T04:23:14.475Z,7.68
2023-03-26T04:24:14.396Z,7.69
2023-03-26T04:25:14.384Z,7.67
2023-03-26T04:26:14.378Z,7.67
2023-03-26T04:27:14.358Z,7.64
2023-03-26T04:28:14.391Z,7.61
2023-03-26T04:29:14.334Z,7.60
2023-03-26T04:30:14.340Z,7.58
2023-03-26T04:31:14.342Z,7.58
2023-03-26T04:32:14.320Z,7.57
2023-03-26T04:33:14.321Z,7.57
2023-03-26T04:34:14.349Z,7.52
2023-03-26T04:35:14.317Z,7.49
2023-03-26T04:36:14.273Z,7.45
2023-03-26T04:37:14.252Z,7.43
2023-03-26T04:38:14.278Z,7.39
2023-03-26T04:39:14.230Z,7.37
2023-03-26T04:40:14.221Z,7.35
2023-03-26T04:41:14.229Z,7.34
2023-03-26T04:42:14.203Z,7.39
2023-03-26T04:43:14.206Z,7.40
2023-03-26T04:44:14.179Z,7.40
2023-03-26T04:45:14.168Z,7.42
2023-03-26T04:46:14.198Z,7.43
2023-03-26T04:47:14.140Z,7.43
2023-03-26T04:48:14.199Z,7.46
2023-03-26T04:49:14.118Z,7.48
2023-03-26T04:50:14.121Z,7.55
2023-03-26T04:51:14.103Z,7.58
2023-03-26T04:52:14.089Z,7.61
2023-03-26T04:53:14.120Z,7.58
2023-03-26T04:54:14.070Z,7.58
2023-03-26T04:55:14.072Z,7.61
2023-03-26T04:56:14.090Z,7.63
2023-03-26T04:57:14.093Z,7.64
2023-03-26T04:58:14.086Z,7.63
2023-03-26T04:59:14.030Z,7.64
2023-03-26T05:00:14.005Z,7.60
2023-03-26T05:01:14.081Z,7.61
2023-03-26T05:02:13.988Z,7.60
2023-03-26T05:03:13.963Z,7.61
2023-03-26T05:04:14.013Z,7.60
2023-03-26T05:05:13.966Z,7.57
2023-03-26T05:06:13.944Z,7.60
2023-03-26T05:07:13.938Z,7.61
2023-03-26T05:08:13.914Z,7.64
2023-03-26T05:09:14.014Z,7.67
2023-03-26T05:10:13.923Z,7.69
2023-03-26T05:11:13.884Z,7.72
2023-03-26T05:12:13.879Z,7.71
2023-03-26T05:13:13.892Z,7.72
2023-03-26T05:14:13.885Z,7.74
2023-03-26T05:15:13.856Z,7.71
2023-03-26T05:16:13.962Z,7.71
2023-03-26T05:17:13.813Z,7.74
2023-03-26T05:18:13.807Z,7.75
2023-03-26T05:19:13.806Z,7.72
2023-03-26T05:20:13.786Z,7.72
2023-03-26T05:21:13.790Z,7.74
2023-03-26T05:22:13.847Z,7.72
2023-03-26T05:23:13.742Z,7.74
2023-03-26T05:24:13.744Z,7.72
2023-03-26T05:25:13.733Z,7.74
2023-03-26T05:26:13.768Z,7.75
2023-03-26T05:27:13.703Z,7.74
2023-03-26T05:28:13.712Z,7.75
2023-03-26T05:29:13.707Z,7.75
2023-03-26T05:30:13.689Z,7.77
2023-03-26T05:31:13.664Z,7.72
2023-03-26T05:32:13.656Z,7.72
2023-03-26T05:33:13.739Z,7.71
2023-03-26T05:34:13.646Z,7.72
2023-03-26T05:35:13.633Z,7.71
2023-03-26T05:36:13.605Z,7.71
2023-03-26T05:37:13.625Z,7.71
2023-03-26T05:38:13.596Z,7.74
2023-03-26T05:39:13.592Z,7.72
2023-03-26T05:40:13.571Z,7.75
2023-03-26T05:41:13.589Z,7.74
2023-03-26T05:42:13.550Z,7.72
2023-03-26T05:43:13.548Z,7.75
2023-03-26T05:44:13.526Z,7.75
2023-03-26T05:45:13.523Z,7.77
2023-03-26T05:46:13.601Z,7.83
2023-03-26T05:47:13.501Z,7.85
2023-03-26T05:48:13.484Z,7.86
2023-03-26T05:49:13.489Z,7.89
2023-03-26T05:50:13.479Z,7.90
2023-03-26T05:51:13.458Z,7.93
2023-03-26T05:52:13.442Z,7.92
2023-03-26T05:53:13.436Z,7.92
2023-03-26T05:54:13.526Z,7.92
2023-03-26T05:55:13.413Z,7.90
2023-03-26T05:56:13.398Z,7.93
2023-03-26T05:57:13.428Z,7.90
2023-03-26T05:58:13.380Z,7.89
2023-03-26T05:59:13.408Z,7.90
2023-03-26T06:00:13.361Z,7.92
2023-03-26T06:01:13.338Z,7.95
2023-03-26T06:02:13.334Z,7.95
2023-03-26T06:03:13.512Z,7.93
2023-03-26T06:04:13.492Z,7.98
2023-03-26T06:05:13.305Z,8.02
2023-03-26T06:06:13.299Z,8.04
2023-03-26T06:07:13.278Z,8.02
2023-03-26T06:08:13.298Z,8.05
2023-03-26T06:09:13.290Z,8.02
2023-03-26T06:10:18.334Z,8.02
2023-03-26T06:11:13.259Z,8.04
2023-03-26T06:12:13.241Z,8.02
2023-03-26T06:13:13.216Z,8.05
2023-03-26T06:14:13.194Z,8.02
2023-03-26T06:15:13.210Z,8.07
2023-03-26T06:16:27.496Z,8.07
2023-03-26T06:17:13.187Z,8.10
2023-03-26T06:18:13.199Z,8.07
2023-03-26T06:19:13.197Z,8.07
2023-03-26T06:20:13.157Z,8.07
2023-03-26T06:21:13.144Z,8.07
2023-03-26T06:22:13.124Z,8.12
2023-03-26T06:23:13.107Z,8.12
2023-03-26T06:24:13.096Z,8.16
2023-03-26T06:25:13.176Z,8.19
2023-03-26T06:26:13.070Z,8.23
2023-03-26T06:27:13.063Z,8.23
2023-03-26T06:28:13.053Z,8.22
2023-03-26T06:29:13.048Z,8.19
2023-03-26T06:30:13.056Z,8.19
2023-03-26T06:31:13.116Z,8.23
2023-03-26T06:32:19.643Z,8.25
2023-03-26T06:33:13.015Z,8.25
2023-03-26T06:34:12.990Z,8.28
2023-03-26T06:35:12.983Z,8.26
2023-03-26T06:36:13.039Z,8.23
2023-03-26T06:37:12.958Z,8.25
2023-03-26T06:38:12.945Z,8.25
2023-03-26T06:39:12.940Z,8.26
2023-03-26T06:40:13.681Z,8.28
2023-03-26T06:41:12.933Z,8.23
2023-03-26T06:42:12.909Z,8.25
2023-03-26T06:43:12.899Z,8.22
2023-03-26T06:44:12.883Z,8.25
2023-03-26T06:45:12.894Z,8.28
2023-03-26T06:46:12.864Z,8.33
2023-03-26T06:47:12.862Z,8.36
2023-03-26T06:48:12.835Z,8.37
2023-03-26T06:49:12.834Z,8.40
2023-03-26T06:50:12.846Z,8.41
2023-03-26T06:51:12.857Z,8.38
2023-03-26T06:52:12.798Z,8.41
2023-03-26T06:53:12.790Z,8.44
2023-03-26T06:54:12.773Z,8.44
2023-03-26T06:55:12.762Z,8.40
2023-03-26T06:56:12.790Z,8.33
2023-03-26T06:57:12.791Z,8.37
2023-03-26T06:58:12.725Z,8.38
2023-03-26T06:59:12.722Z,8.41
2023-03-26T07:00:12.725Z,8.43
2023-03-26T07:01:12.730Z,8.44
2023-03-26T07:02:12.686Z,8.47
2023-03-26T07:03:12.673Z,8.50
2023-03-26T07:04:12.704Z,8.47
2023-03-26T07:05:12.666Z,8.47
2023-03-26T07:06:12.670Z,8.48
2023-03-26T07:07:12.633Z,8.52
2023-03-26T07:08:12.622Z,8.52
2023-03-26T07:09:12.620Z,8.50
2023-03-26T07:10:12.598Z,8.52
2023-03-26T07:11:12.632Z,8.52
2023-03-26T07:12:12.577Z,8.50
2023-03-26T07:13:12.606Z,8.52
2023-03-26T07:14:12.555Z,8.55
2023-03-26T07:15:12.554Z,8.56
2023-03-26T07:16:12.620Z,8.56
2023-03-26T07:17:12.541Z,8.58
2023-03-26T07:18:12.508Z,8.59
2023-03-26T07:19:12.509Z,8.61
2023-03-26T07:20:12.502Z,8.63
2023-03-26T07:21:12.504Z,8.65
2023-03-26T07:22:12.475Z,8.70
2023-03-26T07:23:12.466Z,8.76
2023-03-26T07:24:12.469Z,8.74
2023-03-26T07:25:12.481Z,8.74
2023-03-26T07:26:12.469Z,8.71
2023-03-26T07:27:12.420Z,8.73
2023-03-26T07:28:12.407Z,8.76
2023-03-26T07:29:12.399Z,8.80
2023-03-26T07:30:12.395Z,8.77
2023-03-26T07:31:12.390Z,8.83
2023-03-26T07:32:12.367Z,8.91
2023-03-26T07:33:12.357Z,8.92
2023-03-26T07:34:12.341Z,8.94
2023-03-26T07:35:12.336Z,8.91
2023-03-26T07:36:12.348Z,8.84
2023-03-26T07:37:12.315Z,8.84
2023-03-26T07:38:12.297Z,8.86
2023-03-26T07:39:12.295Z,8.84
2023-03-26T07:40:12.276Z,8.83
2023-03-26T07:41:12.294Z,8.83
2023-03-26T07:42:12.262Z,8.84
2023-03-26T07:43:12.256Z,8.83
2023-03-26T07:44:12.228Z,8.86
2023-03-26T07:45:12.228Z,8.81
2023-03-26T07:46:12.300Z,8.83
2023-03-26T07:47:12.201Z,8.83
2023-03-26T07:48:12.187Z,8.84
2023-03-26T07:49:12.188Z,8.87
2023-03-26T07:50:12.168Z,8.92
2023-03-26T07:51:12.186Z,8.91
2023-03-26T07:52:12.147Z,8.87
2023-03-26T07:53:12.155Z,8.77
2023-03-26T07:54:12.120Z,8.77
2023-03-26T07:55:12.119Z,8.77
2023-03-26T07:56:12.327Z,8.76
2023-03-26T07:57:12.273Z,8.79
2023-03-26T07:58:12.087Z,8.77
2023-03-26T07:59:12.090Z,8.80
2023-03-26T08:00:12.124Z,8.83
2023-03-26T08:01:12.062Z,8.84
2023-03-26T08:02:12.038Z,8.91
2023-03-26T08:03:12.149Z,8.95
2023-03-26T08:04:24.608Z,8.92
2023-03-26T08:05:12.116Z,8.95
2023-03-26T08:06:12.068Z,8.95
2023-03-26T08:07:12.016Z,8.99
2023-03-26T08:08:11.985Z,8.91
2023-03-26T08:09:11.972Z,8.86
2023-03-26T08:10:12.042Z,8.86
2023-03-26T08:11:11.940Z,8.84
2023-03-26T08:12:11.941Z,8.86
2023-03-26T08:13:11.924Z,8.91
2023-03-26T08:14:11.902Z,8.95
2023-03-26T08:15:11.899Z,8.95
2023-03-26T08:16:11.914Z,8.98
2023-03-26T08:17:11.905Z,9.01
2023-03-26T08:18:11.950Z,9.08
2023-03-26T08:19:11.867Z,9.17
2023-03-26T08:20:11.849Z,9.32
2023-03-26T08:21:11.852Z,9.26
2023-03-26T08:22:11.852Z,9.24
2023-03-26T08:23:11.813Z,9.28
2023-03-26T08:24:11.801Z,9.24
2023-03-26T08:25:11.795Z,9.20
2023-03-26T08:26:11.777Z,9.17
2023-03-26T08:27:11.836Z,9.17
2023-03-26T08:28:11.778Z,9.23
2023-03-26T08:29:11.743Z,9.32
2023-03-26T08:30:11.773Z,9.31
2023-03-26T08:31:11.782Z,9.36
2023-03-26T08:32:11.730Z,9.42
2023-03-26T08:33:11.711Z,9.39
2023-03-26T08:34:11.721Z,9.28
2023-03-26T08:35:11.681Z,9.13
2023-03-26T08:36:11.676Z,9.18
2023-03-26T08:37:11.702Z,9.24
2023-03-26T08:38:11.652Z,9.21
2023-03-26T08:39:11.654Z,9.24
2023-03-26T08:40:11.624Z,9.31
2023-03-26T08:41:11.625Z,9.26
2023-03-26T08:42:11.642Z,9.24
2023-03-26T08:43:11.609Z,9.24
2023-03-26T08:44:11.594Z,9.23
2023-03-26T08:45:11.584Z,9.23
2023-03-26T08:46:11.688Z,9.29
2023-03-26T08:47:11.595Z,9.21
2023-03-26T08:48:11.541Z,9.31
2023-03-26T08:49:11.546Z,9.39
2023-03-26T08:50:11.539Z,9.42
2023-03-26T08:51:11.533Z,9.31
2023-03-26T08:52:11.520Z,9.20
2023-03-26T08:53:11.494Z,9.23
2023-03-26T08:54:11.474Z,9.29
2023-03-26T08:55:11.478Z,9.39
2023-03-26T08:56:11.456Z,9.46
2023-03-26T08:57:11.543Z,9.43
2023-03-26T08:58:11.461Z,9.33
2023-03-26T08:59:11.435Z,9.33
2023-03-26T09:00:11.428Z,9.38
2023-03-26T09:01:11.421Z,9.46
2023-03-26T09:02:11.498Z,9.57
2023-03-26T09:03:11.444Z,9.66
2023-03-26T09:04:11.401Z,9.64
2023-03-26T09:05:11.368Z,9.51
2023-03-26T09:06:11.352Z,9.48
2023-03-26T09:07:11.387Z,9.57
2023-03-26T09:08:11.322Z,9.64
2023-03-26T09:09:19.089Z,9.64
2023-03-26T09:10:11.321Z,9.48
2023-03-26T09:11:11.304Z,9.43
2023-03-26T09:12:11.351Z,9.50
2023-03-26T09:13:11.303Z,9.47
2023-03-26T09:14:11.282Z,9.46
2023-03-26T09:15:11.285Z,9.46
2023-03-26T09:16:11.308Z,9.56
2023-03-26T09:17:11.256Z,9.65
2023-03-26T09:18:11.364Z,9.68
2023-03-26T09:19:11.222Z,9.64
2023-03-26T09:20:11.202Z,9.68
2023-03-26T09:21:11.209Z,9.58
2023-03-26T09:22:11.188Z,9.64
2023-03-26T09:23:11.693Z,9.75
2023-03-26T09:24:11.164Z,9.60
2023-03-26T09:25:11.156Z,9.60
2023-03-26T09:26:11.148Z,9.51
2023-03-26T09:27:11.160Z,9.64
2023-03-26T09:28:11.140Z,9.66
2023-03-26T09:29:11.119Z,9.68
2023-03-26T09:30:11.098Z,9.66
2023-03-26T09:31:11.122Z,9.56
2023-03-26T09:32:11.084Z,9.54
2023-03-26T09:33:11.081Z,9.54
2023-03-26T09:34:11.068Z,9.57
2023-03-26T09:35:13.102Z,9.64
2023-03-26T09:36:11.038Z,9.54
2023-03-26T09:37:11.041Z,9.40
2023-03-26T09:38:11.022Z,9.46
2023-03-26T09:39:11.027Z,9.35
2023-03-26T09:40:11.009Z,9.39
2023-03-26T09:41:10.994Z,9.36
2023-03-26T09:42:10.985Z,9.42
2023-03-26T09:43:10.991Z,9.53
2023-03-26T09:44:10.955Z,9.66
2023-03-26T09:45:10.967Z,9.53
2023-03-26T09:46:10.967Z,9.47
2023-03-26T09:47:10.931Z,9.53
2023-03-26T09:48:10.941Z,9.48
2023-03-26T09:49:10.907Z,9.46
2023-03-26T09:50:10.922Z,9.39
2023-03-26T09:51:10.920Z,9.38
2023-03-26T09:52:10.874Z,9.39
2023-03-26T09:53:10.925Z,9.51
2023-03-26T09:54:10.859Z,9.69
2023-03-26T09:55:10.841Z,9.83
2023-03-26T09:56:10.837Z,9.72
2023-03-26T09:57:10.853Z,9.84
2023-03-26T09:58:10.838Z,9.96
2023-03-26T09:59:10.824Z,10.04
2023-03-26T10:00:10.798Z,10.11
2023-03-26T10:01:10.850Z,10.18
2023-03-26T10:02:10.788Z,10.20
2023-03-26T10:03:10.795Z,10.26
2023-03-26T10:04:10.776Z,10.29
2023-03-26T10:05:10.769Z,10.18
2023-03-26T10:06:10.726Z,9.87
2023-03-26T10:07:10.717Z,9.54
2023-03-26T10:08:10.723Z,9.43
2023-03-26T10:09:10.723Z,9.47
2023-03-26T10:10:10.708Z,9.36
2023-03-26T10:11:10.672Z,9.46
2023-03-26T10:12:10.666Z,9.48
2023-03-26T10:13:15.034Z,9.54
2023-03-26T10:14:10.679Z,9.65
2023-03-26T10:15:10.675Z,9.72
2023-03-26T10:16:10.734Z,9.79
2023-03-26T10:17:10.638Z,9.86
2023-03-26T10:18:29.497Z,9.87
2023-03-26T10:19:10.611Z,9.91
2023-03-26T10:20:10.584Z,9.99
2023-03-26T10:21:10.566Z,10.02
2023-03-26T10:22:10.570Z,10.01
2023-03-26T10:23:10.544Z,9.93
2023-03-26T10:24:10.569Z,9.97
2023-03-26T10:25:10.531Z,10.02
2023-03-26T10:26:10.667Z,10.04
2023-03-26T10:27:10.969Z,10.12
2023-03-26T10:28:10.495Z,10.17
2023-03-26T10:29:10.494Z,9.93
2023-03-26T10:30:10.477Z,9.83
2023-03-26T10:31:10.540Z,9.72
2023-03-26T10:32:10.457Z,9.65
2023-03-26T10:33:10.476Z,9.74
2023-03-26T10:34:10.442Z,9.74
2023-03-26T10:35:10.425Z,9.42
2023-03-26T10:36:10.413Z,9.17
2023-03-26T10:37:10.390Z,9.05
2023-03-26T10:38:10.386Z,8.98
2023-03-26T10:39:10.391Z,8.98
2023-03-26T10:40:10.362Z,8.87
2023-03-26T10:41:10.349Z,8.95
2023-03-26T10:42:10.351Z,9.01
2023-03-26T10:43:12.716Z,8.81
2023-03-26T10:44:10.341Z,8.81
2023-03-26T10:45:10.308Z,8.87
2023-03-26T10:46:10.305Z,8.94
2023-03-26T10:47:10.292Z,8.89
2023-03-26T10:48:10.282Z,8.86
2023-03-26T10:49:10.287Z,8.83
2023-03-26T10:50:10.260Z,8.80
2023-03-26T10:51:10.236Z,8.83
2023-03-26T10:52:10.236Z,8.89
2023-03-26T10:53:10.235Z,8.94
2023-03-26T10:54:10.227Z,8.92
2023-03-26T10:55:10.231Z,8.94
2023-03-26T10:56:10.197Z,8.91
2023-03-26T10:57:10.217Z,8.95
2023-03-26T10:58:10.174Z,8.95
2023-03-26T10:59:10.159Z,8.98
2023-03-26T11:00:10.187Z,8.98
2023-03-26T11:01:10.152Z,9.04
2023-03-26T11:02:10.150Z,9.04
2023-03-26T11:03:10.179Z,9.14
2023-03-26T11:04:10.175Z,9.10
2023-03-26T11:05:10.146Z,9.08
2023-03-26T11:06:10.259Z,9.04
2023-03-26T11:07:10.082Z,9.17
2023-03-26T11:08:10.066Z,9.38
2023-03-26T11:09:10.074Z,9.50
2023-03-26T11:10:10.071Z,9.54
2023-03-26T11:11:10.061Z,9.46
2023-03-26T11:12:25.545Z,9.35
2023-03-26T11:13:10.034Z,9.39
2023-03-26T11:14:10.018Z,9.48
2023-03-26T11:15:10.023Z,9.60
2023-03-26T11:16:10.049Z,9.71
2023-03-26T11:17:09.987Z,9.83
2023-03-26T11:18:10.009Z,9.90
2023-03-26T11:19:09.971Z,9.87
2023-03-26T11:20:10.010Z,9.86
2023-03-26T11:21:19.659Z,9.54
2023-03-26T11:22:09.931Z,9.31
2023-03-26T11:23:09.917Z,9.28
2023-03-26T11:24:09.919Z,9.40
2023-03-26T11:25:09.922Z,9.60
2023-03-26T11:26:09.896Z,9.69
2023-03-26T11:27:15.385Z,9.75
2023-03-26T11:28:10.531Z,9.64
2023-03-26T11:29:31.630Z,9.53
2023-03-26T11:30:09.886Z,9.53
2023-03-26T11:31:09.937Z,9.51
2023-03-26T11:32:09.845Z,9.58
2023-03-26T11:33:09.808Z,9.51
2023-03-26T11:34:09.816Z,9.40
2023-03-26T11:35:09.827Z,9.40
2023-03-26T11:36:09.815Z,9.60
2023-03-26T11:37:09.768Z,9.83
2023-03-26T11:38:09.777Z,9.93
2023-03-26T11:39:09.756Z,9.91
2023-03-26T11:40:09.772Z,9.57
2023-03-26T11:41:09.723Z,9.64
2023-03-26T11:42:09.726Z,9.64
2023-03-26T11:43:09.707Z,9.71
2023-03-26T11:44:09.707Z,9.66
2023-03-26T11:45:09.723Z,9.76
2023-03-26T11:46:09.718Z,9.87
2023-03-26T11:47:09.663Z,10.02
2023-03-26T11:48:09.726Z,10.11
2023-03-26T11:49:09.650Z,10.09
2023-03-26T11:50:09.663Z,10.02
2023-03-26T11:51:09.649Z,9.89
2023-03-26T11:52:09.686Z,9.93
2023-03-26T11:53:09.625Z,10.05
2023-03-26T11:54:09.604Z,9.99
2023-03-26T11:55:09.588Z,10.04
2023-03-26T11:56:09.605Z,9.90
2023-03-26T11:57:09.667Z,9.87
2023-03-26T11:58:11.110Z,9.78
2023-03-26T11:59:09.537Z,9.83
2023-03-26T12:00:09.528Z,9.75
2023-03-26T12:01:09.623Z,9.76
2023-03-26T12:02:09.569Z,9.71
2023-03-26T12:03:09.639Z,9.64
2023-03-26T12:04:09.530Z,9.64
2023-03-26T12:05:09.467Z,9.75
2023-03-26T12:06:09.496Z,9.83
2023-03-26T12:07:09.480Z,9.79
2023-03-26T12:08:09.458Z,9.79
2023-03-26T12:09:09.433Z,9.87
2023-03-26T12:10:20.724Z,9.66
2023-03-26T12:11:09.461Z,9.65
2023-03-26T12:12:09.415Z,9.66
2023-03-26T12:13:09.383Z,9.60
2023-03-26T12:14:09.395Z,9.43
2023-03-26T12:15:09.395Z,9.56
2023-03-26T12:16:09.377Z,9.61
2023-03-26T12:17:09.346Z,9.46
2023-03-26T12:18:09.362Z,9.46
2023-03-26T12:19:09.322Z,9.38
2023-03-26T12:20:09.321Z,9.24
2023-03-26T12:21:09.366Z,9.17
2023-03-26T12:22:09.334Z,9.13
2023-03-26T12:23:09.289Z,9.14
2023-03-26T12:24:09.261Z,9.20
2023-03-26T12:25:09.255Z,9.08
2023-03-26T12:26:09.239Z,9.17
2023-03-26T12:27:09.234Z,9.15
2023-03-26T12:28:09.223Z,9.23
2023-03-26T12:29:09.199Z,9.31
2023-03-26T12:30:09.220Z,9.32
2023-03-26T12:31:09.194Z,9.33
2023-03-26T12:32:09.180Z,9.47
2023-03-26T12:33:09.187Z,9.56
2023-03-26T12:34:09.157Z,9.68
2023-03-26T12:35:09.178Z,9.56
2023-03-26T12:36:09.181Z,9.54
2023-03-26T12:37:09.116Z,9.50
2023-03-26T12:38:09.114Z,9.35
2023-03-26T12:39:16.731Z,9.40
2023-03-26T12:40:19.370Z,9.48
2023-03-26T12:41:09.083Z,9.65
2023-03-26T12:44:59.322Z,9.66
2023-03-26T12:45:04.908Z,9.74
2023-03-26T12:47:55.405Z,9.69
2023-03-26T12:48:07.371Z,9.64
2023-03-26T12:48:12.840Z,9.60
2023-03-26T12:49:12.867Z,9.71
2023-03-26T12:50:12.755Z,9.68
2023-03-26T12:51:12.702Z,9.61
2023-03-26T12:52:12.690Z,9.71
2023-03-26T12:53:12.692Z,9.76
2023-03-26T12:54:12.668Z,9.65
2023-03-26T12:55:12.660Z,9.69
2023-03-26T12:56:12.677Z,9.78
2023-03-26T12:57:13.368Z,9.99
2023-03-26T12:58:13.637Z,10.04
2023-03-26T12:59:12.623Z,10.17
2023-03-26T13:00:12.624Z,10.14
2023-03-26T13:01:12.634Z,10.08
2023-03-26T13:02:12.636Z,10.18
2023-03-26T13:03:12.708Z,10.34
2023-03-26T13:04:12.568Z,10.12
2023-03-26T13:05:12.558Z,9.87
2023-03-26T13:06:12.561Z,9.76
2023-03-26T13:07:12.603Z,9.86
2023-03-26T13:08:12.539Z,9.72
2023-03-26T13:09:12.516Z,9.64
2023-03-26T13:10:12.533Z,9.81
2023-03-26T13:11:12.507Z,10.04
2023-03-26T13:12:12.479Z,10.07
2023-03-26T13:13:12.498Z,10.09
2023-03-26T13:14:12.468Z,10.12
2023-03-26T13:15:12.476Z,10.05
2023-03-26T13:16:12.458Z,10.20
2023-03-26T13:17:12.453Z,10.27
2023-03-26T13:18:12.427Z,10.26
2023-03-26T13:19:12.409Z,10.47
2023-03-26T13:20:12.616Z,10.63
2023-03-26T13:21:12.385Z,10.73
2023-03-26T13:22:12.382Z,10.86
2023-03-26T13:23:12.362Z,10.82
2023-03-26T13:24:12.355Z,10.61
2023-03-26T13:25:12.367Z,10.52
2023-03-26T13:26:12.338Z,10.42
2023-03-26T13:27:12.333Z,10.60
2023-03-26T13:28:12.357Z,10.64
2023-03-26T13:29:12.295Z,10.74
2023-03-26T13:30:12.353Z,10.81
2023-03-26T13:31:12.343Z,10.56
2023-03-26T13:32:12.273Z,10.71
2023-03-26T13:33:12.284Z,10.82
2023-03-26T13:34:12.247Z,10.91
2023-03-26T13:35:12.264Z,11.00
2023-03-26T13:36:23.163Z,10.86
2023-03-26T13:37:12.319Z,10.89
2023-03-26T13:38:12.240Z,10.79
2023-03-26T13:39:12.202Z,10.59
2023-03-26T13:40:12.198Z,10.32
2023-03-26T13:41:12.158Z,10.47
2023-03-26T13:42:12.166Z,10.63
2023-03-26T13:43:12.140Z,10.63
2023-03-26T13:44:12.184Z,10.64
2023-03-26T13:45:12.160Z,10.74
2023-03-26T13:46:12.166Z,10.76
2023-03-26T13:47:12.106Z,10.66
2023-03-26T13:48:12.087Z,10.66
2023-03-26T13:49:12.079Z,10.68
2023-03-26T13:50:12.119Z,10.63
2023-03-26T13:51:12.063Z,10.67
2023-03-26T13:52:12.074Z,10.74
2023-03-26T13:53:12.040Z,10.78
2023-03-26T13:54:12.083Z,10.88
2023-03-26T13:55:12.050Z,10.84
2023-03-26T13:56:12.012Z,10.86
2023-03-26T13:57:14.658Z,10.89
2023-03-26T13:58:11.992Z,10.71
2023-03-26T13:59:11.973Z,10.32
2023-03-26T14:00:11.997Z,10.18
2023-03-26T14:01:12.021Z,10.11
2023-03-26T14:02:11.954Z,9.91
2023-03-26T14:03:11.923Z,9.86
2023-03-26T14:04:12.398Z,9.93
2023-03-26T14:05:11.912Z,10.01
2023-03-26T14:06:11.958Z,9.94
2023-03-26T14:07:11.922Z,9.78
2023-03-26T14:08:11.891Z,9.69
2023-03-26T14:09:11.902Z,9.72
2023-03-26T14:10:11.891Z,9.84
2023-03-26T14:11:11.862Z,9.96
2023-03-26T14:12:20.832Z,10.09
2023-03-26T14:13:11.840Z,10.20
2023-03-26T14:14:11.810Z,10.25
2023-03-26T14:15:11.840Z,10.22
2023-03-26T14:16:11.820Z,10.09
2023-03-26T14:17:11.786Z,10.11
2023-03-26T14:18:11.774Z,10.07
2023-03-26T14:19:11.760Z,10.04
2023-03-26T14:20:11.769Z,10.02
2023-03-26T14:21:11.751Z,9.96
2023-03-26T14:22:11.727Z,9.83
2023-03-26T14:23:11.798Z,9.54
2023-03-26T14:24:11.713Z,9.32
2023-03-26T14:25:11.733Z,9.20
2023-03-26T14:26:11.695Z,9.10
2023-03-26T14:27:11.718Z,8.83
2023-03-26T14:28:11.699Z,8.71
2023-03-26T14:29:11.676Z,8.59
2023-03-26T14:30:11.654Z,8.52
2023-03-26T14:31:11.738Z,8.40
2023-03-26T14:32:11.663Z,8.29
2023-03-26T14:33:11.612Z,8.30
2023-03-26T14:34:11.619Z,8.28
2023-03-26T14:35:11.597Z,8.30
2023-03-26T14:36:11.580Z,8.33
2023-03-26T14:37:11.577Z,8.40
2023-03-26T14:38:11.559Z,8.44
2023-03-26T14:39:11.566Z,8.48
2023-03-26T14:40:11.562Z,8.53
2023-03-26T14:41:11.550Z,8.58
2023-03-26T14:42:11.518Z,8.62
2023-03-26T14:43:11.508Z,8.71
2023-03-26T14:44:11.495Z,8.71
2023-03-26T14:45:11.497Z,8.71
2023-03-26T14:46:11.509Z,8.71
2023-03-26T14:47:14.756Z,8.65
2023-03-26T14:48:11.532Z,8.59
2023-03-26T14:49:11.467Z,8.41
2023-03-26T14:50:11.434Z,8.38
2023-03-26T14:51:11.442Z,8.40
2023-03-26T14:52:11.409Z,8.33
2023-03-26T14:53:11.399Z,8.28
2023-03-26T14:54:11.385Z,8.30
2023-03-26T14:55:11.380Z,8.38
2023-03-26T14:56:12.449Z,8.30
2023-03-26T14:57:11.396Z,8.23
2023-03-26T14:58:11.339Z,8.22
2023-03-26T14:59:11.329Z,8.22
2023-03-26T15:00:11.663Z,8.16
2023-03-26T15:01:11.382Z,8.16
2023-03-26T15:02:11.449Z,8.19
2023-03-26T15:03:11.335Z,8.18
2023-03-26T15:04:11.315Z,8.22
2023-03-26T15:05:11.275Z,8.25
2023-03-26T15:06:11.256Z,8.26
2023-03-26T15:07:11.253Z,8.23
2023-03-26T15:08:11.237Z,8.16
2023-03-26T15:09:11.272Z,8.15
2023-03-26T15:10:11.223Z,8.15
2023-03-26T15:11:11.369Z,8.07
2023-03-26T15:12:12.463Z,8.10
2023-03-26T15:13:11.195Z,7.98
2023-03-26T15:14:11.177Z,8.04
2023-03-26T15:15:11.173Z,8.00
2023-03-26T15:16:11.209Z,8.00
2023-03-26T15:17:11.162Z,7.97
2023-03-26T15:18:11.144Z,7.97
2023-03-26T15:19:11.116Z,7.95
2023-03-26T15:20:11.122Z,7.95
2023-03-26T15:21:11.126Z,7.97
2023-03-26T15:22:11.084Z,8.02
2023-03-26T15:23:11.079Z,8.00
2023-03-26T15:24:11.074Z,7.97
2023-03-26T15:25:11.047Z,8.00
2023-03-26T15:26:11.075Z,8.01
2023-03-26T15:27:11.031Z,8.02
2023-03-26T15:28:11.021Z,8.04
2023-03-26T15:29:11.026Z,8.02
2023-03-26T15:30:11.001Z,7.98
2023-03-26T15:31:11.015Z,7.98
2023-03-26T15:32:10.982Z,7.97
2023-03-26T15:33:25.583Z,7.97
2023-03-26T15:34:10.948Z,8.01
2023-03-26T15:35:10.939Z,8.01
2023-03-26T15:36:18.594Z,7.97
2023-03-26T15:37:10.947Z,7.90
2023-03-26T15:38:10.922Z,7.89
2023-03-26T15:39:10.901Z,7.87
2023-03-26T15:40:10.888Z,7.86
2023-03-26T15:41:10.908Z,7.90
2023-03-26T15:42:11.117Z,7.87
2023-03-26T15:43:10.897Z,7.83
2023-03-26T15:44:23.527Z,7.83
2023-03-26T15:45:10.862Z,7.85
2023-03-26T15:46:10.842Z,7.86
2023-03-26T15:47:10.820Z,7.83
2023-03-26T15:48:11.568Z,7.79
2023-03-26T15:49:10.793Z,7.80
2023-03-26T15:50:10.803Z,7.83
2023-03-26T15:51:10.776Z,7.85
2023-03-26T15:52:10.786Z,7.87
2023-03-26T15:53:10.756Z,7.77
2023-03-26T15:54:10.745Z,7.77
2023-03-26T15:55:11.250Z,7.82
2023-03-26T15:56:10.716Z,7.82
2023-03-26T15:57:10.806Z,7.75
2023-03-26T15:58:10.711Z,7.72
2023-03-26T15:59:10.684Z,7.72
2023-03-26T16:00:10.709Z,7.74
2023-03-26T16:01:10.702Z,7.74
2023-03-26T16:02:10.701Z,7.77
2023-03-26T16:03:10.662Z,7.75
2023-03-26T16:04:10.631Z,7.72
2023-03-26T16:05:10.648Z,7.72
2023-03-26T16:06:10.613Z,7.68
2023-03-26T16:07:10.614Z,7.72
2023-03-26T16:08:10.601Z,7.72
2023-03-26T16:09:10.588Z,7.69
2023-03-26T16:10:10.559Z,7.69
2023-03-26T16:11:10.557Z,7.64
2023-03-26T16:12:10.565Z,7.63
2023-03-26T16:13:10.540Z,7.58
2023-03-26T16:14:10.519Z,7.61
2023-03-26T16:15:10.527Z,7.57
2023-03-26T16:16:10.614Z,7.55
2023-03-26T16:17:10.501Z,7.58
2023-03-26T16:18:10.619Z,7.61
2023-03-26T16:19:10.463Z,7.58
2023-03-26T16:20:10.494Z,7.52
2023-03-26T16:21:10.442Z,7.55
2023-03-26T16:22:10.443Z,7.57
2023-03-26T16:23:10.421Z,7.50
2023-03-26T16:24:10.448Z,7.53
2023-03-26T16:25:27.223Z,7.50
2023-03-26T16:26:10.400Z,7.55
2023-03-26T16:27:10.458Z,7.55
2023-03-26T16:28:10.367Z,7.50
2023-03-26T16:29:10.370Z,7.52
2023-03-26T16:30:10.397Z,7.53
2023-03-26T16:31:10.630Z,7.46
2023-03-26T16:32:11.033Z,7.49
2023-03-26T16:33:10.520Z,7.49
2023-03-26T16:34:10.337Z,7.52
2023-03-26T16:35:10.307Z,7.50
2023-03-26T16:36:10.364Z,7.49
2023-03-26T16:37:10.290Z,7.48
2023-03-26T16:38:10.299Z,7.49
2023-03-26T16:39:10.326Z,7.42
2023-03-26T16:40:10.304Z,7.37
2023-03-26T16:41:10.348Z,7.34
2023-03-26T16:42:10.229Z,7.32
2023-03-26T16:43:10.297Z,7.32
2023-03-26T16:44:11.437Z,7.32
2023-03-26T16:45:10.523Z,7.34
2023-03-26T16:46:10.246Z,7.37
2023-03-26T16:47:10.177Z,7.37
2023-03-26T16:48:10.172Z,7.32
2023-03-26T16:49:10.155Z,7.37
2023-03-26T16:50:10.146Z,7.32
2023-03-26T16:51:10.155Z,7.32
2023-03-26T16:52:10.145Z,7.34
2023-03-26T16:53:10.122Z,7.31
2023-03-26T16:54:10.134Z,7.30
2023-03-26T16:55:10.084Z,7.27
2023-03-26T16:56:10.072Z,7.30
2023-03-26T16:57:10.178Z,7.35
2023-03-26T16:58:10.057Z,7.35
2023-03-26T16:59:10.059Z,7.31
2023-03-26T17:00:10.077Z,7.31
2023-03-26T17:01:10.013Z,7.30
2023-03-26T17:02:10.142Z,7.28
2023-03-26T17:03:10.082Z,7.30
2023-03-26T17:04:09.978Z,7.28
2023-03-26T17:05:09.975Z,7.27
2023-03-26T17:06:09.961Z,7.31
2023-03-26T17:07:09.994Z,7.30
2023-03-26T17:08:09.963Z,7.28
2023-03-26T17:09:11.557Z,7.28
2023-03-26T17:10:09.980Z,7.30
2023-03-26T17:11:09.933Z,7.30
2023-03-26T17:12:09.901Z,7.31
2023-03-26T17:13:09.907Z,7.28
2023-03-26T17:14:09.915Z,7.30
2023-03-26T17:15:09.877Z,7.30
2023-03-26T17:16:09.890Z,7.31
2023-03-26T17:17:09.849Z,7.28
2023-03-26T17:18:09.959Z,7.27
2023-03-26T17:19:09.832Z,7.20